Time;durP1;ratioP1;P1;durP2;ratioP2;P2;SDS_P1;SDS_P2;PMS_P1;PMS_P2;Temp;Humidity;BMP_temperature;BMP_pressure;BME280_temperature;BME280_humidity;BME280_pressure;Samples;Min_cycle;Max_cycle;Signal;HPM_P1;HPM_P2
2023/01/07 00:01:29;;;;;;;3.78;3.47;;;6.00;99.90;;;;;;4990487;28;20505;-79
2023/01/07 00:03:58;;;;;;;3.70;3.40;;;6.00;99.90;;;;;;5005315;28;20043;-79
2023/01/07 00:06:29;;;;;;;4.38;3.25;;;6.10;99.90;;;;;;4990272;28;20506;-79
2023/01/07 00:08:57;;;;;;;2.97;2.83;;;6.10;99.90;;;;;;4945355;28;20035;-79
2023/01/07 00:11:31;;;;;;;3.83;2.90;;;6.00;99.90;;;;;;4952528;28;20059;-79
2023/01/07 00:13:59;;;;;;;3.30;3.00;;;5.90;99.90;;;;;;4952421;29;20035;-79
2023/01/07 00:16:29;;;;;;;2.60;2.40;;;6.00;99.90;;;;;;4949981;28;20059;-79
2023/01/07 00:18:59;;;;;;;3.28;2.92;;;6.00;99.90;;;;;;4950825;28;20063;-79
2023/01/07 00:21:28;;;;;;;4.13;3.72;;;6.00;99.90;;;;;;4979889;28;20050;-79
2023/01/07 00:23:58;;;;;;;3.42;3.13;;;5.90;99.90;;;;;;4989254;28;20509;-79
2023/01/07 00:26:29;;;;;;;3.53;3.33;;;6.00;99.90;;;;;;4973795;28;20517;-79
2023/01/07 00:28:57;;;;;;;2.92;2.72;;;6.00;99.90;;;;;;4990700;28;20057;-78
2023/01/07 00:31:31;;;;;;;3.72;3.42;;;6.00;99.90;;;;;;4989057;28;20057;-78
2023/01/07 00:36:30;;;;;;;2.67;2.55;;;6.10;99.90;;;;;;4990632;28;20043;-78
2023/01/07 00:39:07;;;;;;;3.65;3.40;;;6.10;99.90;;;;;;4989608;28;20046;-78
2023/01/07 00:41:35;;;;;;;3.33;3.13;;;6.10;99.90;;;;;;4976708;28;20842;-78
2023/01/07 00:44:04;;;;;;;8.27;3.15;;;6.10;99.90;;;;;;4959568;28;20054;-78
2023/01/07 00:46:33;;;;;;;3.25;2.95;;;6.10;99.90;;;;;;4976169;28;20055;-79
2023/01/07 00:49:01;;;;;;;3.08;2.88;;;6.10;99.90;;;;;;4969320;28;20043;-78
2023/01/07 00:51:28;;;;;;;2.97;2.75;;;6.00;99.90;;;;;;4970377;28;20051;-79
2023/01/07 00:53:56;;;;;;;5.15;2.90;;;6.00;99.90;;;;;;4968045;28;20050;-79
2023/01/07 00:56:24;;;;;;;4.53;4.13;;;6.00;99.90;;;;;;4969418;28;20050;-79
2023/01/07 00:58:52;;;;;;;2.80;2.60;;;5.90;99.90;;;;;;4953707;28;20392;-78
2023/01/07 01:01:19;;;;;;;2.97;2.78;;;5.90;99.90;;;;;;4970548;28;20043;-79
2023/01/07 01:03:50;;;;;;;2.53;2.42;;;5.90;99.90;;;;;;4968923;28;20035;-79
2023/01/07 01:06:21;;;;;;;3.05;2.85;;;5.90;99.90;;;;;;4971113;28;20051;-78
2023/01/07 01:08:50;;;;;;;4.45;3.20;;;5.90;99.90;;;;;;4967877;28;20045;-79
2023/01/07 01:11:17;;;;;;;3.28;2.85;;;5.90;99.90;;;;;;4970965;28;20402;-79
2023/01/07 01:13:45;;;;;;;3.38;2.50;;;5.90;99.90;;;;;;4970011;28;20055;-78
2023/01/07 01:16:15;;;;;;;4.47;4.15;;;6.00;99.90;;;;;;4969016;28;20043;-78
2023/01/07 01:18:45;;;;;;;3.30;3.10;;;6.00;99.90;;;;;;4969105;28;20062;-79
2023/01/07 01:21:14;;;;;;;2.67;2.47;;;6.10;99.90;;;;;;4983136;28;20047;-79
2023/01/07 01:23:45;;;;;;;2.78;2.53;;;6.00;99.90;;;;;;4987629;28;20042;-79
2023/01/07 01:26:16;;;;;;;2.60;2.40;;;6.00;99.90;;;;;;4988265;28;20517;-79
2023/01/07 01:28:44;;;;;;;8.40;4.93;;;6.00;99.90;;;;;;4989704;28;20051;-78
2023/01/07 01:31:15;;;;;;;7.95;3.45;;;6.00;99.90;;;;;;4988690;28;20061;-78
2023/01/07 01:33:53;;;;;;;4.10;3.72;;;6.00;99.90;;;;;;4989004;28;20505;-79
2023/01/07 01:36:21;;;;;;;2.92;2.65;;;6.00;99.90;;;;;;5004314;28;20050;-79
2023/01/07 01:38:50;;;;;;;2.33;2.13;;;5.90;99.90;;;;;;4972014;28;20505;-79
2023/01/07 01:41:18;;;;;;;2.97;2.72;;;5.90;99.90;;;;;;4987806;28;20540;-79
2023/01/07 01:43:51;;;;;;;3.78;3.17;;;5.80;99.90;;;;;;4971912;28;20069;-79
2023/01/07 01:46:28;;;;;;;3.40;2.90;;;5.80;99.90;;;;;;4972506;28;20046;-79
2023/01/07 01:49:00;;;;;;;2.88;2.60;;;5.90;99.90;;;;;;4989010;28;20043;-78
2023/01/07 01:51:33;;;;;;;3.08;2.53;;;5.90;99.90;;;;;;4971652;28;20057;-79
2023/01/07 01:54:11;;;;;;;4.47;4.18;;;5.90;99.90;;;;;;4988593;28;20057;-79
2023/01/07 01:56:49;;;;;;;2.70;2.50;;;5.90;99.90;;;;;;4971462;28;20410;-79
2023/01/07 01:59:24;;;;;;;3.05;2.70;;;5.90;99.90;;;;;;4988416;28;20505;-79
2023/01/07 02:01:55;;;;;;;4.72;4.35;;;5.90;99.90;;;;;;4970217;28;20045;-79
2023/01/07 02:04:29;;;;;;;6.60;5.57;;;5.90;99.90;;;;;;4988550;28;20514;-79
2023/01/07 02:07:10;;;;;;;4.25;3.92;;;5.80;99.90;;;;;;5003541;28;20760;-79
2023/01/07 02:09:43;;;;;;;4.75;3.28;;;5.80;99.90;;;;;;4957329;28;20419;-79
2023/01/07 02:13:00;;;;;;;4.05;3.08;;;5.80;99.90;;;;;;4968123;28;20388;-79
2023/01/07 02:15:49;;;;;;;4.05;3.53;;;5.80;99.90;;;;;;4951904;28;20415;-78
2023/01/07 02:18:31;;;;;;;4.80;4.40;;;5.70;99.90;;;;;;4969570;28;20474;-79
2023/01/07 02:21:23;;;;;;;5.15;4.72;;;5.60;99.90;;;;;;4978727;28;20043;-79
2023/01/07 02:24:10;;;;;;;;;;;5.60;99.90;;;;;;4964247;28;20522;-79
2023/01/07 02:26:59;;;;;;;3.97;3.58;;;5.60;99.90;;;;;;4965633;28;19922;-79
2023/01/07 02:29:53;;;;;;;5.93;3.42;;;5.60;99.90;;;;;;4964648;28;20511;-79
2023/01/07 02:32:52;;;;;;;4.60;4.20;;;5.60;99.90;;;;;;4948827;29;20533;-79
2023/01/07 02:35:54;;;;;;;4.55;4.15;;;5.60;99.90;;;;;;4933247;28;20051;-79
2023/01/07 02:38:34;;;;;;;5.20;4.80;;;5.60;99.90;;;;;;4955295;28;20142;-79
2023/01/07 02:41:22;;;;;;;4.38;3.97;;;5.70;99.90;;;;;;4990568;28;20050;-79
2023/01/07 02:44:18;;;;;;;4.43;4.13;;;5.60;99.90;;;;;;4991179;28;20038;-78
2023/01/07 02:47:06;;;;;;;4.45;4.07;;;5.60;99.90;;;;;;4991763;28;20494;-79
2023/01/07 02:49:36;;;;;;;3.28;3.00;;;5.50;99.90;;;;;;4974909;28;20070;-79
2023/01/07 02:52:20;;;;;;;5.28;4.78;;;5.50;99.90;;;;;;4990557;28;20073;-79
2023/01/07 02:55:16;;;;;;;4.28;3.97;;;5.50;99.90;;;;;;4974963;28;20738;-79
2023/01/07 02:57:57;;;;;;;6.07;4.32;;;5.50;99.90;;;;;;4990980;28;20049;-79
2023/01/07 03:00:52;;;;;;;3.13;2.80;;;5.40;99.90;;;;;;4990095;28;20541;-79
2023/01/07 03:03:47;;;;;;;3.53;3.30;;;5.40;99.90;;;;;;4992364;28;20054;-79
2023/01/07 03:06:18;;;;;;;;;;;5.40;99.90;;;;;;4991847;28;20208;-79
2023/01/07 03:09:13;;;;;;;6.90;5.47;;;5.30;99.90;;;;;;4981029;28;19926;-79
2023/01/07 03:11:52;;;;;;;6.57;5.07;;;5.40;99.90;;;;;;4972029;28;20049;-79
2023/01/07 03:14:38;;;;;;;4.72;4.32;;;5.40;99.90;;;;;;4955802;28;20046;-79
2023/01/07 03:17:11;;;;;;;3.75;3.45;;;5.40;99.90;;;;;;4971466;28;20410;-79
2023/01/07 03:19:44;;;;;;;5.25;4.80;;;5.40;99.90;;;;;;4971908;28;20057;-80
2023/01/07 03:22:17;;;;;;;5.28;4.78;;;5.40;99.90;;;;;;4972340;28;20498;-79
2023/01/07 03:24:47;;;;;;;7.38;5.13;;;5.40;99.90;;;;;;4972355;28;20050;-79
2023/01/07 03:27:19;;;;;;;5.20;4.00;;;5.40;99.90;;;;;;4973418;28;20054;-79
2023/01/07 03:29:50;;;;;;;7.53;4.03;;;5.40;99.90;;;;;;4954656;28;20047;-79
2023/01/07 03:32:45;;;;;;;5.45;4.95;;;5.40;99.90;;;;;;4971236;28;20047;-79
2023/01/07 03:35:13;;;;;;;5.40;4.25;;;5.40;99.90;;;;;;4952933;28;20051;-79
2023/01/07 03:37:45;;;;;;;8.43;4.80;;;5.40;99.90;;;;;;4970113;28;20047;-79
2023/01/07 03:40:13;;;;;;;5.30;4.80;;;5.30;99.90;;;;;;4989190;28;20569;-79
2023/01/07 03:42:41;;;;;;;5.85;4.82;;;5.30;99.90;;;;;;4990419;28;20061;-79
2023/01/07 03:45:21;;;;;;;6.85;4.72;;;5.40;99.90;;;;;;4989661;28;20502;-79
2023/01/07 03:47:51;;;;;;;5.93;5.13;;;5.30;99.90;;;;;;4973947;28;20537;-79
2023/01/07 03:50:22;;;;;;;4.93;4.53;;;5.30;99.90;;;;;;4989653;28;20050;-79
2023/01/07 03:52:51;;;;;;;4.13;3.70;;;5.20;99.90;;;;;;4964793;28;20061;-79
2023/01/07 03:55:22;;;;;;;5.15;4.75;;;5.20;99.90;;;;;;4963754;28;20054;-79
2023/01/07 03:57:56;;;;;;;5.32;4.75;;;5.20;99.90;;;;;;4973823;28;20055;-79
2023/01/07 04:00:26;;;;;;;5.70;4.93;;;5.20;99.90;;;;;;4951257;28;20047;-79
2023/01/07 04:03:00;;;;;;;6.82;5.75;;;5.20;99.90;;;;;;4971517;28;20063;-79
2023/01/07 04:05:34;;;;;;;4.75;4.18;;;5.10;99.90;;;;;;4970619;28;20514;-79
2023/01/07 04:08:12;;;;;;;6.20;5.30;;;5.10;99.90;;;;;;4970203;28;20050;-79
2023/01/07 04:10:43;;;;;;;4.90;4.47;;;5.10;99.90;;;;;;4967181;28;20054;-79
2023/01/07 04:13:12;;;;;;;4.97;4.43;;;5.10;99.90;;;;;;4967559;28;20062;-79
2023/01/07 04:15:45;;;;;;;3.70;3.03;;;5.00;99.90;;;;;;4966798;28;20419;-79
2023/01/07 04:18:16;;;;;;;4.22;3.83;;;5.00;99.90;;;;;;4951605;29;20055;-78
2023/01/07 04:20:50;;;;;;;5.55;5.05;;;5.00;99.90;;;;;;4968744;28;20051;-79
2023/01/07 04:23:24;;;;;;;4.05;3.75;;;4.90;99.90;;;;;;4989438;28;20794;-79
2023/01/07 04:25:56;;;;;;;5.57;3.80;;;4.90;99.90;;;;;;4989703;28;20053;-79
2023/01/07 04:28:26;;;;;;;4.30;3.95;;;4.90;99.90;;;;;;4989086;28;20050;-78
2023/01/07 04:30:59;;;;;;;3.25;2.97;;;4.90;99.90;;;;;;4990193;28;20046;-79
2023/01/07 04:33:34;;;;;;;4.25;3.80;;;4.90;99.90;;;;;;4990036;28;20524;-79
2023/01/07 04:36:12;;;;;;;5.97;4.25;;;4.80;99.90;;;;;;4989310;28;20043;-79
2023/01/07 04:38:41;;;;;;;4.15;3.75;;;4.80;99.90;;;;;;4956967;28;20054;-79
2023/01/07 04:41:55;;;;;;;8.45;3.70;;;4.80;99.90;;;;;;4988985;28;20498;-79
2023/01/07 04:44:25;;;;;;;4.50;4.00;;;4.70;99.90;;;;;;4980858;28;20046;-79
2023/01/07 04:46:56;;;;;;;3.72;3.42;;;4.80;99.90;;;;;;4970696;28;20511;-79
2023/01/07 04:49:26;;;;;;;4.13;3.83;;;4.70;99.90;;;;;;4971879;28;20050;-79
2023/01/07 04:51:55;;;;;;;4.35;3.72;;;4.70;99.90;;;;;;4971209;28;20039;-79
2023/01/07 04:54:28;;;;;;;3.33;2.97;;;4.60;99.90;;;;;;4970480;28;20050;-79
2023/01/07 04:57:10;;;;;;;3.15;2.95;;;4.60;99.90;;;;;;4969604;28;20079;-78
2023/01/07 04:59:47;;;;;;;3.65;3.35;;;4.50;99.90;;;;;;4969015;28;20043;-79
2023/01/07 05:02:23;;;;;;;3.15;2.90;;;4.50;99.90;;;;;;4970042;28;20043;-79
2023/01/07 05:05:01;;;;;;;4.60;2.85;;;4.40;99.90;;;;;;4970512;28;20051;-79
2023/01/07 05:07:35;;;;;;;3.20;2.90;;;4.30;99.90;;;;;;4970499;28;20064;-79
2023/01/07 05:10:26;;;;;;;4.93;4.63;;;4.30;99.90;;;;;;4954776;28;20495;-79
2023/01/07 05:13:06;;;;;;;2.88;2.67;;;4.30;99.90;;;;;;4969607;28;20053;-79
2023/01/07 05:15:48;;;;;;;5.75;2.88;;;4.30;99.90;;;;;;4953118;28;20047;-79
2023/01/07 05:18:32;;;;;;;3.67;3.38;;;4.30;99.90;;;;;;4969364;28;20055;-79
2023/01/07 05:21:11;;;;;;;3.35;3.08;;;4.20;99.90;;;;;;4949011;28;20046;-79
2023/01/07 05:23:58;;;;;;;4.18;3.88;;;4.00;99.90;;;;;;4987574;28;20259;-79
2023/01/07 05:27:33;;;;;;;4.85;4.50;;;3.90;99.90;;;;;;4972529;28;20054;-79
2023/01/07 05:30:12;;;;;;;4.55;3.22;;;3.80;99.90;;;;;;4953701;28;20047;-79
2023/01/07 05:32:46;;;;;;;3.72;3.42;;;3.70;99.90;;;;;;4957318;28;20047;-79
2023/01/07 05:35:22;;;;;;;3.35;3.13;;;3.70;99.90;;;;;;4950156;29;20047;-79
2023/01/07 05:38:03;;;;;;;2.92;2.72;;;3.60;99.90;;;;;;4932612;29;20074;-79
2023/01/07 05:40:38;;;;;;;3.90;3.60;;;3.50;99.90;;;;;;4968344;28;20510;-79
2023/01/07 05:43:13;;;;;;;4.18;3.78;;;3.40;99.90;;;;;;4953589;28;20541;-79
2023/01/07 05:45:54;;;;;;;3.42;3.22;;;3.30;99.90;;;;;;4989106;28;20081;-79
2023/01/07 05:48:40;;;;;;;4.50;3.45;;;3.30;99.90;;;;;;4972942;28;20263;-79
2023/01/07 05:51:11;;;;;;;3.45;3.17;;;3.10;99.90;;;;;;4989809;28;20061;-79
2023/01/07 05:53:49;;;;;;;4.57;4.18;;;3.10;99.90;;;;;;4987256;28;20532;-79
2023/01/07 05:56:34;;;;;;;3.90;3.13;;;3.00;99.90;;;;;;4986601;28;20050;-79
2023/01/07 05:59:12;;;;;;;3.40;3.20;;;2.90;99.90;;;;;;4988969;28;20069;-79
2023/01/07 06:02:06;;;;;;;3.25;2.97;;;2.80;99.90;;;;;;4987504;28;20064;-79
2023/01/07 06:04:41;;;;;;;3.13;2.92;;;2.80;99.90;;;;;;4989699;28;20053;-79
2023/01/07 06:07:37;;;;;;;4.28;3.85;;;2.70;99.90;;;;;;4974394;28;20430;-79
2023/01/07 06:10:13;;;;;;;3.75;3.13;;;2.40;99.90;;;;;;4969694;28;20051;-79
2023/01/07 06:13:03;;;;;;;3.45;3.15;;;2.20;99.90;;;;;;4951238;28;20043;-79
2023/01/07 06:15:49;;;;;;;11.00;3.85;;;2.10;99.90;;;;;;4966501;28;20054;-79
2023/01/07 06:18:25;;;;;;;4.03;3.72;;;2.00;99.90;;;;;;4967682;28;20055;-79
2023/01/07 06:21:14;;;;;;;4.45;4.15;;;2.00;99.90;;;;;;4977138;28;20406;-79
2023/01/07 06:23:57;;;;;;;4.45;4.15;;;2.00;99.90;;;;;;4989556;28;20054;-79
2023/01/07 06:26:32;;;;;;;4.00;3.63;;;1.90;99.90;;;;;;4989671;28;20050;-78
2023/01/07 07:29:40;;;;;;;6.53;5.82;;;0.40;99.90;;;;;;4948044;28;20066;-79
2023/01/07 07:32:08;;;;;;;4.75;4.18;;;0.70;99.90;;;;;;4984127;28;20055;-79
2023/01/07 07:34:37;;;;;;;6.95;4.38;;;0.80;99.90;;;;;;4979417;28;20047;-79
2023/01/07 07:37:05;;;;;;;5.10;4.25;;;0.80;99.90;;;;;;4991709;28;20057;-80
2023/01/07 07:39:33;;;;;;;4.53;4.22;;;0.80;99.90;;;;;;4996000;28;20041;-80
2023/01/07 07:42:03;;;;;;;11.85;4.70;;;0.70;99.90;;;;;;4997647;28;20061;-79
2023/01/07 07:44:30;;;;;;;4.78;4.38;;;0.50;99.90;;;;;;4998079;28;20057;-79
2023/01/07 07:46:58;;;;;;;9.27;4.65;;;0.50;99.90;;;;;;4998006;28;20046;-79
2023/01/07 07:49:26;;;;;;;4.55;4.05;;;0.70;99.90;;;;;;4991930;28;20047;-79
2023/01/07 07:51:54;;;;;;;5.75;5.13;;;0.60;99.90;;;;;;4980261;28;20111;-80
2023/01/07 07:54:22;;;;;;;5.53;4.82;;;0.70;99.90;;;;;;4963885;28;20057;-79
2023/01/07 07:56:50;;;;;;;4.53;4.13;;;0.80;99.90;;;;;;4996297;28;20069;-79
2023/01/07 07:59:18;;;;;;;6.03;4.63;;;0.80;99.90;;;;;;4997045;28;20042;-79
2023/01/07 08:01:48;;;;;;;4.25;3.85;;;0.90;99.90;;;;;;4980089;28;20049;-79
2023/01/07 08:04:16;;;;;;;5.07;4.57;;;0.90;99.90;;;;;;5003420;28;20038;-80
2023/01/07 08:06:44;;;;;;;5.30;3.97;;;1.00;99.90;;;;;;5000339;28;20049;-80
2023/01/07 08:09:11;;;;;;;5.68;5.07;;;1.00;99.90;;;;;;5004481;28;20053;-80
2023/01/07 08:11:39;;;;;;;4.05;3.65;;;1.10;99.90;;;;;;4994204;28;20057;-80
2023/01/07 08:14:08;;;;;;;4.40;3.00;;;1.20;99.90;;;;;;4985654;28;20054;-79
2023/01/07 08:16:37;;;;;;;4.38;3.97;;;1.20;99.90;;;;;;4997449;28;20045;-79
2023/01/07 08:19:05;;;;;;;6.72;3.92;;;1.30;99.90;;;;;;4995693;28;20065;-79
2023/01/07 08:21:32;;;;;;;4.47;3.78;;;1.40;99.90;;;;;;4996698;28;20053;-80
2023/01/07 08:24:00;;;;;;;4.30;3.75;;;1.50;99.90;;;;;;4994285;28;20034;-79
2023/01/07 08:26:27;;;;;;;4.22;3.85;;;1.60;99.90;;;;;;4998241;28;20045;-80
2023/01/07 08:28:55;;;;;;;3.85;3.17;;;1.70;99.90;;;;;;4996348;28;20050;-79
2023/01/07 08:31:23;;;;;;;3.58;3.28;;;1.70;99.90;;;;;;4997032;28;20049;-80
2023/01/07 08:33:51;;;;;;;6.57;4.72;;;1.80;99.90;;;;;;4980584;28;20065;-79
2023/01/07 08:36:18;;;;;;;6.35;4.03;;;1.90;99.90;;;;;;4994786;28;20061;-80
2023/01/07 08:38:51;;;;;;;4.28;3.70;;;2.00;99.90;;;;;;4996353;28;20035;-79
2023/01/07 08:41:22;;;;;;;6.38;5.30;;;2.00;99.90;;;;;;4996485;28;20047;-80
2023/01/07 08:43:52;;;;;;;4.80;4.40;;;2.10;99.90;;;;;;4964622;28;20046;-79
2023/01/07 08:46:20;;;;;;;4.05;3.75;;;2.10;99.90;;;;;;4950886;29;20422;-80
2023/01/07 08:48:48;;;;;;;4.15;3.88;;;2.20;99.90;;;;;;4961693;28;20043;-79
2023/01/07 08:51:19;;;;;;;4.30;3.90;;;2.30;99.90;;;;;;4971147;28;20070;-79
2023/01/07 08:53:47;;;;;;;4.68;3.72;;;2.40;99.90;;;;;;4969155;28;20051;-79
2023/01/07 08:56:15;;;;;;;4.57;4.28;;;2.40;99.90;;;;;;4971105;28;20046;-79
2023/01/07 08:58:43;;;;;;;4.22;3.85;;;2.50;99.90;;;;;;4970695;28;20058;-79
2023/01/07 09:01:10;;;;;;;8.25;4.55;;;2.60;99.90;;;;;;4970021;28;20105;-79
2023/01/07 09:03:38;;;;;;;4.53;3.72;;;2.60;99.90;;;;;;4970250;28;20049;-79
2023/01/07 09:06:06;;;;;;;4.65;4.35;;;2.70;99.90;;;;;;4986140;28;20050;-79
2023/01/07 09:08:34;;;;;;;4.07;3.78;;;2.90;99.90;;;;;;4963900;28;20518;-79
2023/01/07 09:11:02;;;;;;;7.03;4.68;;;3.00;99.90;;;;;;4951080;29;20058;-79
2023/01/07 09:13:29;;;;;;;6.63;5.68;;;3.00;99.90;;;;;;4965779;28;20511;-79
2023/01/07 09:15:58;;;;;;;4.80;4.35;;;3.10;99.90;;;;;;4949397;28;20530;-79
2023/01/07 09:18:26;;;;;;;5.60;5.10;;;3.30;99.90;;;;;;4950090;28;20054;-79
2023/01/07 09:20:54;;;;;;;7.88;4.82;;;3.50;99.90;;;;;;4950672;28;20581;-79
2023/01/07 09:23:21;;;;;;;4.72;4.28;;;3.70;99.90;;;;;;4948709;28;20524;-79
2023/01/07 09:25:48;;;;;;;6.85;5.55;;;3.80;99.90;;;;;;4949976;29;20407;-79
2023/01/07 09:28:16;;;;;;;4.95;4.47;;;3.90;99.90;;;;;;4951489;28;20043;-79
2023/01/07 09:30:44;;;;;;;4.95;4.55;;;4.10;99.90;;;;;;4949424;29;20066;-79
2023/01/07 09:33:12;;;;;;;5.50;4.95;;;4.20;99.90;;;;;;4949319;28;20055;-79
2023/01/07 09:35:39;;;;;;;4.25;3.95;;;4.30;99.90;;;;;;4950943;28;20583;-80
2023/01/07 09:38:07;;;;;;;7.25;6.43;;;4.60;99.90;;;;;;4979498;28;20501;-79
2023/01/07 09:40:38;;;;;;;6.18;5.57;;;5.30;99.90;;;;;;4975238;28;20043;-79
2023/01/07 09:43:34;;;;;;;3.88;3.55;;;6.20;99.90;;;;;;4970107;28;20062;-80
2023/01/07 09:46:22;;;;;;;7.90;4.57;;;7.10;99.90;;;;;;4967942;28;20055;-80
2023/01/07 09:48:58;;;;;;;4.90;4.47;;;7.70;99.90;;;;;;4969056;28;20047;-80
2023/01/07 09:51:25;;;;;;;6.30;3.75;;;7.10;99.90;;;;;;4968053;28;20043;-80
2023/01/07 09:54:00;;;;;;;5.60;4.00;;;6.70;99.90;;;;;;4969048;28;20058;-80
2023/01/07 09:56:30;;;;;;;6.10;3.72;;;6.60;99.90;;;;;;4970131;28;20513;-79
2023/01/07 09:58:59;;;;;;;3.53;3.22;;;6.90;99.90;;;;;;4969161;28;20051;-80
2023/01/07 10:01:36;;;;;;;5.18;3.65;;;7.90;99.90;;;;;;4969829;28;20047;-80
2023/01/07 10:04:22;;;;;;;4.35;3.95;;;7.90;99.90;;;;;;4961986;28;20499;-80
2023/01/07 10:07:07;;;;;;;3.58;3.28;;;7.60;99.90;;;;;;4949771;29;20423;-80
2023/01/07 10:09:41;;;;;;;5.70;4.45;;;7.30;99.90;;;;;;4956000;28;20047;-80
2023/01/07 10:12:19;;;;;;;3.90;3.58;;;7.10;99.90;;;;;;4950034;28;20082;-80
2023/01/07 10:15:04;;;;;;;3.20;3.00;;;6.90;99.90;;;;;;4951275;28;20058;-80
2023/01/07 10:17:44;;;;;;;2.30;2.13;;;6.90;99.90;;;;;;4950466;28;20050;-80
2023/01/07 10:20:36;;;;;;;4.23;3.80;;;6.80;99.90;;;;;;4950194;28;20066;-80
2023/01/07 10:23:08;;;;;;;;;;;6.70;99.90;;;;;;4949796;29;20051;-80
2023/01/07 10:25:44;;;;;;;4.18;3.42;;;6.70;99.90;;;;;;4949996;28;20534;-80
2023/01/07 10:28:19;;;;;;;4.40;3.30;;;6.80;99.90;;;;;;4940163;28;20047;-80
2023/01/07 10:30:52;;;;;;;5.22;4.75;;;6.80;99.90;;;;;;4950491;29;20056;-80
2023/01/07 10:33:24;;;;;;;5.07;4.53;;;6.90;99.90;;;;;;4949982;28;20039;-80
2023/01/07 10:36:20;;;;;;;6.55;3.45;;;6.80;99.90;;;;;;4950513;28;20050;-81
2023/01/07 10:39:17;;;;;;;4.22;3.55;;;6.80;99.90;;;;;;4957978;28;20066;-80
2023/01/07 10:42:17;;;;;;;4.85;4.45;;;6.90;99.90;;;;;;4932179;28;20553;-81
2023/01/07 10:44:58;;;;;;;3.47;3.03;;;6.90;99.90;;;;;;4950336;28;20051;-80
2023/01/07 10:47:50;;;;;;;3.67;3.43;;;7.00;99.90;;;;;;4949850;28;20497;-79
2023/01/07 10:50:36;;;;;;;3.63;3.35;;;7.10;99.90;;;;;;4950158;29;20047;-80
2023/01/07 10:53:09;;;;;;;3.63;3.33;;;7.10;99.90;;;;;;4947821;28;20499;-80
2023/01/07 10:55:53;;;;;;;4.03;3.67;;;7.10;99.90;;;;;;4948471;28;20055;-80
2023/01/07 10:58:21;;;;;;;4.28;3.85;;;7.10;99.90;;;;;;4950773;28;20047;-80
2023/01/07 11:00:49;;;;;;;5.75;5.05;;;7.20;99.90;;;;;;4951301;28;20072;-81
2023/01/07 11:03:24;;;;;;;4.47;4.07;;;7.30;99.90;;;;;;4960824;28;20043;-80
2023/01/07 11:05:58;;;;;;;5.20;3.25;;;7.30;99.90;;;;;;4968168;28;20256;-81
2023/01/07 11:08:35;;;;;;;3.75;3.45;;;7.40;99.90;;;;;;4970848;28;20494;-80
2023/01/07 11:11:04;;;;;;;4.00;3.63;;;7.40;99.90;;;;;;4969158;28;20051;-81
2023/01/07 11:13:35;;;;;;;3.63;3.25;;;7.50;99.90;;;;;;4978225;28;20050;-80
2023/01/07 11:16:12;;;;;;;;;;;7.60;99.90;;;;;;4970321;28;20431;-80
2023/01/07 11:19:01;;;;;;;3.85;3.03;;;7.60;99.90;;;;;;4971485;28;19922;-80
2023/01/07 11:21:32;;;;;;;4.45;4.03;;;7.60;99.90;;;;;;4970811;28;20078;-80
2023/01/07 11:24:23;;;;;;;;;;;7.70;99.90;;;;;;4970082;28;20058;-80
2023/01/07 11:26:50;;;;;;;3.90;3.45;;;7.70;99.90;;;;;;4970502;28;19922;-81
2023/01/07 11:29:28;;;;;;;3.15;2.85;;;7.80;99.90;;;;;;4972711;28;20085;-81
2023/01/07 11:31:59;;;;;;;13.10;4.78;;;7.80;99.90;;;;;;4970433;28;20819;-80
2023/01/07 11:34:34;;;;;;;4.25;3.63;;;7.80;99.90;;;;;;4972729;28;20422;-80
2023/01/07 11:37:10;;;;;;;3.53;2.92;;;7.80;99.90;;;;;;4971494;28;20874;-80
2023/01/07 11:39:38;;;;;;;3.42;2.90;;;7.90;99.90;;;;;;4967175;28;20047;-81
2023/01/07 11:45:12;;;;;;;3.88;3.58;;;8.10;99.90;;;;;;4953282;28;20411;-81
2023/01/07 11:48:08;;;;;;;3.92;3.33;;;8.20;99.90;;;;;;4952835;28;20066;-81
2023/01/07 11:50:52;;;;;;;3.88;3.35;;;8.30;99.90;;;;;;4944123;28;20059;-82
2023/01/07 11:53:34;;;;;;;2.97;2.72;;;8.30;99.90;;;;;;4966373;28;20419;-82
2023/01/07 11:56:31;;;;;;;3.38;2.97;;;8.30;99.90;;;;;;4950672;28;20047;-82
2023/01/07 11:59:34;;;;;;;3.97;3.63;;;8.40;99.90;;;;;;4933211;28;20073;-82
2023/01/07 12:02:23;;;;;;;3.70;3.38;;;8.50;99.90;;;;;;4949638;29;20055;-81
2023/01/07 12:05:15;;;;;;;3.30;3.03;;;8.60;99.90;;;;;;4968233;28;20415;-81
2023/01/07 12:07:45;;;;;;;3.63;3.08;;;8.70;99.90;;;;;;4969186;28;20049;-79
2023/01/07 12:10:38;;;;;;;3.17;2.97;;;8.70;99.90;;;;;;4968692;28;20613;-80
2023/01/07 12:13:17;;;;;;;2.85;2.63;;;8.80;99.90;;;;;;4969276;28;20426;-80
2023/01/07 12:15:50;;;;;;;2.80;2.60;;;9.00;99.90;;;;;;4970032;28;20046;-81
2023/01/07 12:18:18;;;;;;;3.78;3.47;;;9.00;99.90;;;;;;4971170;28;20062;-81
2023/01/07 12:21:25;;;;;;;5.10;3.55;;;9.00;99.90;;;;;;4971181;28;20043;-81
2023/01/07 12:24:10;;;;;;;6.47;3.85;;;9.10;99.90;;;;;;4968940;28;20043;-81
2023/01/07 12:26:50;;;;;;;3.38;3.08;;;9.10;99.90;;;;;;4971910;28;20495;-81
2023/01/07 12:29:44;;;;;;;3.13;2.92;;;9.30;99.90;;;;;;4969880;28;20066;-81
2023/01/07 12:32:35;;;;;;;6.63;2.92;;;9.30;99.90;;;;;;4969565;28;20054;-81
2023/01/07 12:35:10;;;;;;;5.82;3.17;;;9.30;99.90;;;;;;4971954;28;20059;-81
2023/01/07 12:37:56;;;;;;;2.92;2.65;;;9.30;99.90;;;;;;4952618;28;20065;-81
2023/01/07 12:40:37;;;;;;;2.88;2.67;;;9.30;99.90;;;;;;4960617;28;20043;-80
2023/01/07 12:43:29;;;;;;;3.38;2.97;;;9.30;99.90;;;;;;4953382;28;20400;-81
2023/01/07 12:46:01;;;;;;;4.15;3.75;;;9.40;99.90;;;;;;4968960;28;20051;-81
2023/01/07 12:49:03;;;;;;;3.00;2.80;;;9.50;99.90;;;;;;4970760;28;20414;-81
2023/01/07 12:51:47;;;;;;;2.75;2.55;;;9.50;99.90;;;;;;4969687;28;20058;-81
2023/01/07 12:54:26;;;;;;;3.95;2.30;;;9.70;99.90;;;;;;4951138;29;20059;-80
2023/01/07 12:57:39;;;;;;;3.33;3.05;;;9.70;99.90;;;;;;4964561;28;20063;-81
2023/01/07 13:00:20;;;;;;;3.30;3.00;;;9.70;99.90;;;;;;4913627;29;20047;-81
2023/01/07 13:03:02;;;;;;;4.03;2.65;;;9.80;99.90;;;;;;4966700;28;20466;-81
2023/01/07 13:05:53;;;;;;;2.25;2.15;;;9.70;99.90;;;;;;4969668;28;20038;-80
2023/01/07 13:08:43;;;;;;;3.13;2.92;;;9.70;99.90;;;;;;4952331;28;20042;-81
2023/01/07 13:14:27;;;;;;;2.35;2.15;;;9.70;99.90;;;;;;4981662;28;20537;-80
2023/01/07 13:17:12;;;;;;;3.25;2.95;;;9.60;99.90;;;;;;4969423;28;20054;-80
2023/01/07 13:19:40;;;;;;;3.50;3.20;;;9.60;99.90;;;;;;4970740;28;20046;-80
2023/01/07 13:22:34;;;;;;;5.28;2.72;;;9.70;99.90;;;;;;4969101;28;20051;-80
2023/01/07 13:25:11;;;;;;;3.03;2.78;;;10.00;99.90;;;;;;4947907;28;20054;-80
2023/01/07 13:28:22;;;;;;;2.95;2.60;;;10.30;99.90;;;;;;4970399;28;20055;-81
2023/01/07 13:31:37;;;;;;;3.03;2.78;;;10.70;99.90;;;;;;4970286;28;20256;-80
2023/01/07 13:34:22;;;;;;;3.42;3.13;;;10.30;99.90;;;;;;4935589;28;20236;-80
2023/01/07 13:37:09;;;;;;;3.13;2.83;;;10.10;99.90;;;;;;4970111;28;20050;-81
2023/01/07 13:40:05;;;;;;;3.13;2.92;;;10.00;99.90;;;;;;4968129;28;20414;-80
2023/01/07 13:42:41;;;;;;;3.67;2.35;;;9.90;99.90;;;;;;4970288;28;20454;-80
2023/01/07 13:45:31;;;;;;;2.90;2.70;;;9.90;99.90;;;;;;4970169;28;20043;-80
2023/01/07 13:48:02;;;;;;;5.50;2.88;;;9.90;99.90;;;;;;4968440;28;20043;-80
2023/01/07 13:50:43;;;;;;;2.50;2.30;;;9.90;99.90;;;;;;4970756;28;20418;-80
2023/01/07 13:53:16;;;;;;;3.10;2.65;;;9.90;99.90;;;;;;4969037;28;20598;-81
2023/01/07 13:55:45;;;;;;;5.97;2.40;;;9.80;99.90;;;;;;4969777;28;20043;-80
2023/01/07 13:58:33;;;;;;;2.95;2.65;;;9.70;99.90;;;;;;4968720;28;20051;-80
2023/01/07 14:01:20;;;;;;;3.17;2.97;;;9.50;99.90;;;;;;4968464;28;20396;-80
2023/01/07 14:03:57;;;;;;;2.88;2.67;;;9.40;99.90;;;;;;4957639;28;20054;-81
2023/01/07 14:06:38;;;;;;;3.47;3.17;;;9.30;99.90;;;;;;4951443;28;20551;-80
2023/01/07 14:09:06;;;;;;;2.17;2.08;;;9.20;99.90;;;;;;4949105;28;20428;-81
2023/01/07 14:11:35;;;;;;;3.78;2.78;;;9.20;99.90;;;;;;4948203;28;20435;-80
2023/01/07 14:14:24;;;;;;;3.13;2.92;;;9.10;99.90;;;;;;4965419;28;20066;-80
2023/01/07 14:17:08;;;;;;;4.57;3.53;;;9.10;99.90;;;;;;4950842;28;20127;-80
2023/01/07 14:20:03;;;;;;;3.45;3.05;;;9.10;99.90;;;;;;4936252;28;20502;-80
2023/01/07 14:22:44;;;;;;;4.45;3.90;;;8.90;99.90;;;;;;4932920;29;20055;-80
2023/01/07 14:25:38;;;;;;;3.05;2.78;;;8.90;99.90;;;;;;4948582;28;20043;-80
2023/01/07 14:28:12;;;;;;;2.90;2.70;;;8.70;99.90;;;;;;4950200;28;20047;-81
2023/01/07 14:30:51;;;;;;;3.28;3.05;;;8.60;99.90;;;;;;4988942;28;20387;-80
2023/01/07 14:33:32;;;;;;;3.40;3.03;;;8.40;99.90;;;;;;4989224;28;20484;-80
2023/01/07 14:36:06;;;;;;;2.45;1.83;;;8.30;99.90;;;;;;4992893;28;20046;-80
2023/01/07 14:38:34;;;;;;;2.50;2.30;;;8.20;99.90;;;;;;4992634;28;20061;-80
2023/01/07 14:41:15;;;;;;;3.17;2.90;;;8.10;99.90;;;;;;4975179;28;20054;-80
2023/01/07 14:43:44;;;;;;;;;;;7.90;99.90;;;;;;4964726;28;20498;-80
2023/01/07 14:46:21;;;;;;;2.85;2.63;;;7.90;99.90;;;;;;4995483;28;19922;-80
2023/01/07 14:49:01;;;;;;;2.35;2.15;;;7.70;99.90;;;;;;4971715;28;20050;-80
2023/01/07 14:51:59;;;;;;;2.25;2.05;;;7.60;99.90;;;;;;4985242;28;20063;-80
2023/01/07 14:54:45;;;;;;;3.08;2.63;;;7.60;99.90;;;;;;4941984;28;20046;-81
2023/01/07 14:57:37;;;;;;;3.10;2.90;;;7.30;99.90;;;;;;4974148;28;20055;-80
2023/01/07 15:00:09;;;;;;;1.75;1.65;;;7.00;99.90;;;;;;4974440;28;20400;-80